FGSL

Malabo Airport

Malabo, Equatorial Guinea
METAR FGSL 212100Z 00000KT 9999 TS FEW010 FEW016CB 24/21 Q1017 NOSIG
Observed Flight Rules
Jun-21 @ 21:00 UTC (an hour ago) Visual Flight Rules
Visibility Clouds Conditions
10,000+ meters
  • Few at 1,000' AGL
  • Few at 1,600' AGL
  • Thunderstorm
Temperatures Readings
Current 24°C / 75°F
Dewpoint 21°C / 70°F
Humidity 83%
Altimeter 30.03" Hg
Pressure 1017 hPa
Elevation 56
METAR FGSL 212100Z 00000KT 9999 TS FEW010 FEW016CB 24/21 Q1017 NOSIG
Observed Flight Rules
Jun-21 @ 21:00 UTC
(an hour ago)
VFR
Clouds
  • Few at 1,000' AGL
  • Few at 1,600' AGL
Conditions
  • Thunderstorm
Temperature Dewpoint
24°C / 75°F 21°C / 70°F
Humidity Altimeter Pressure
83% 30.03" Hg 1017 hPa